Skipjack — WDB4846 — position and weather

sailwx.info

Track history (hours):
 
Tides and Currents Weather Stations Pressure Air Temp Water Temp Dewpoint Dewpoint Depression Visibility Wind Speed Wind Dir Waves Ship Positions

Skipjack

Owner: Higman Barge Lines, Inc., ORANGE, TX. More information available from US FCC via Universal Licensing System and Coast Guard Vessel Documentation Center.

Last reported at 2017-Sep-28 22:05 UTC. Time now 2017-Dec-11 11:24 UTC.
Position N 30°05' W 093°44'.
Warning: this ship's position is months out of date.

Length 24 m; draft 3.5 m.

Type: Towing. MMSI: 366903030.

Date/timePositionNaut miles runAvg speedWind from/ knotsBaromVisibWave heightAir tempDewpointWater temp
2017-Sep-28 22:05N 30°05' W 093°44'1 0.1
2017-Sep-28 14:19N 30°05' W 093°43'0 0.4
2017-Sep-28 13:57N 30°05' W 093°43'1 0.8
2017-Sep-28 13:03N 30°05' W 093°44'0 0.0
2017-Sep-28 12:54N 30°05' W 093°44'0 0.0
2017-Sep-28 06:16N 30°05' W 093°44'0 0.0
2017-Sep-28 06:00N 30°05' W 093°44'0 0.0
2017-Sep-28 05:30N 30°05' W 093°44'0 0.0
2017-Sep-28 05:00N 30°05' W 093°44'0 0.0
2017-Sep-28 03:46N 30°05' W 093°44'0 0.0
2017-Sep-28 03:29N 30°05' W 093°44'0 0.0
2017-Sep-28 02:58N 30°05' W 093°44'0 0.0
2017-Sep-28 02:22N 30°05' W 093°44'0 0.0
2017-Sep-28 01:59N 30°05' W 093°44'0 0.1
2017-Sep-27 23:04N 30°05' W 093°44'0 0.1
2017-Sep-27 22:59N 30°05' W 093°44'0 0.0
2017-Sep-27 09:55N 30°05' W 093°44'0 0.0
2017-Sep-27 09:30N 30°05' W 093°44'0 0.0
2017-Sep-27 08:55N 30°05' W 093°44'0 0.0
2017-Sep-27 06:35N 30°05' W 093°44'0 0.0
2017-Sep-27 06:30N 30°05' W 093°44'0 0.0
2017-Sep-26 18:49N 30°05' W 093°44'0 0.1
2017-Sep-26 13:20N 30°05' W 093°44'0 0.0
2017-Sep-26 12:59N 30°05' W 093°44'0 0.0
2017-Sep-25 11:13N 30°05' W 093°44'0 0.0
2017-Sep-25 04:00N 30°05' W 093°44'0 0.0
2017-Sep-25 02:57N 30°05' W 093°44'  
2017-Sep-21 21:29N 29°36' W 090°43'2 4.9
2017-Sep-21 21:00N 29°36' W 090°40'3 6.5
2017-Sep-21 20:30N 29°35' W 090°37'3 6.4
2017-Sep-21 20:00N 29°34' W 090°33'3 0.1
2017-Sep-19 21:51N 29°34' W 090°29'2 6.6
2017-Sep-19 21:30N 29°34' W 090°32'3 5.3
2017-Sep-19 21:00N 29°35' W 090°35'3 5.4
2017-Sep-19 20:30N 29°35' W 090°38'3 5.7
2017-Sep-19 20:00N 29°36' W 090°41'2 3.1
2017-Sep-19 19:30N 29°36' W 090°43'2 4.3
2017-Sep-19 19:00N 29°34' W 090°44'3 6.0
2017-Sep-19 18:30N 29°32' W 090°47'66 4.9
2017-Sep-19 05:01N 29°50' W 091°60'1 2.9
2017-Sep-19 04:46N 29°50' W 092°01'2 5.7
2017-Sep-19 04:29N 29°49' W 092°02'3 5.5
2017-Sep-19 04:00N 29°48' W 092°05'3 5.4
2017-Sep-19 03:30N 29°47' W 092°08'3 5.3
2017-Sep-19 03:00N 29°47' W 092°11'2 4.8
2017-Sep-19 02:30N 29°48' W 092°14'3 5.7
2017-Sep-19 02:00N 29°49' W 092°17'2 5.0
2017-Sep-19 01:30N 29°50' W 092°19'  
Track history (hours):
 
Tides and Currents Weather Stations Pressure Air Temp Water Temp Dewpoint Dewpoint Depression Visibility Wind Speed Wind Dir Waves Ship Positions

Skipjack

Owner: Higman Barge Lines, Inc., ORANGE, TX. More information available from US FCC via Universal Licensing System and Coast Guard Vessel Documentation Center.

Last reported at 2017-Sep-28 22:05 UTC. Time now 2017-Dec-11 11:24 UTC.
Position N 30°05' W 093°44'.
Warning: this ship's position is months out of date.

Length 24 m; draft 3.5 m.

Type: Towing. MMSI: 366903030.

Date/timePositionNaut miles runAvg speedWind from/ knotsBaromVisibWave heightAir tempDewpointWater temp
2017-Sep-28 22:05N 30°05' W 093°44'1 0.1
2017-Sep-28 14:19N 30°05' W 093°43'0 0.4
2017-Sep-28 13:57N 30°05' W 093°43'1 0.8
2017-Sep-28 13:03N 30°05' W 093°44'0 0.0
2017-Sep-28 12:54N 30°05' W 093°44'0 0.0
2017-Sep-28 06:16N 30°05' W 093°44'0 0.0
2017-Sep-28 06:00N 30°05' W 093°44'0 0.0
2017-Sep-28 05:30N 30°05' W 093°44'0 0.0
2017-Sep-28 05:00N 30°05' W 093°44'0 0.0
2017-Sep-28 03:46N 30°05' W 093°44'0 0.0
2017-Sep-28 03:29N 30°05' W 093°44'0 0.0
2017-Sep-28 02:58N 30°05' W 093°44'0 0.0
2017-Sep-28 02:22N 30°05' W 093°44'0 0.0
2017-Sep-28 01:59N 30°05' W 093°44'0 0.1
2017-Sep-27 23:04N 30°05' W 093°44'0 0.1
2017-Sep-27 22:59N 30°05' W 093°44'0 0.0
2017-Sep-27 09:55N 30°05' W 093°44'0 0.0
2017-Sep-27 09:30N 30°05' W 093°44'0 0.0
2017-Sep-27 08:55N 30°05' W 093°44'0 0.0
2017-Sep-27 06:35N 30°05' W 093°44'0 0.0
2017-Sep-27 06:30N 30°05' W 093°44'0 0.0
2017-Sep-26 18:49N 30°05' W 093°44'0 0.1
2017-Sep-26 13:20N 30°05' W 093°44'0 0.0
2017-Sep-26 12:59N 30°05' W 093°44'0 0.0
2017-Sep-25 11:13N 30°05' W 093°44'0 0.0
2017-Sep-25 04:00N 30°05' W 093°44'0 0.0
2017-Sep-25 02:57N 30°05' W 093°44'  
2017-Sep-21 21:29N 29°36' W 090°43'2 4.9
2017-Sep-21 21:00N 29°36' W 090°40'3 6.5
2017-Sep-21 20:30N 29°35' W 090°37'3 6.4
2017-Sep-21 20:00N 29°34' W 090°33'3 0.1
2017-Sep-19 21:51N 29°34' W 090°29'2 6.6
2017-Sep-19 21:30N 29°34' W 090°32'3 5.3
2017-Sep-19 21:00N 29°35' W 090°35'3 5.4
2017-Sep-19 20:30N 29°35' W 090°38'3 5.7
2017-Sep-19 20:00N 29°36' W 090°41'2 3.1
2017-Sep-19 19:30N 29°36' W 090°43'2 4.3
2017-Sep-19 19:00N 29°34' W 090°44'3 6.0
2017-Sep-19 18:30N 29°32' W 090°47'66 4.9
2017-Sep-19 05:01N 29°50' W 091°60'1 2.9
2017-Sep-19 04:46N 29°50' W 092°01'2 5.7
2017-Sep-19 04:29N 29°49' W 092°02'3 5.5
2017-Sep-19 04:00N 29°48' W 092°05'3 5.4
2017-Sep-19 03:30N 29°47' W 092°08'3 5.3
2017-Sep-19 03:00N 29°47' W 092°11'2 4.8
2017-Sep-19 02:30N 29°48' W 092°14'3 5.7
2017-Sep-19 02:00N 29°49' W 092°17'2 5.0
2017-Sep-19 01:30N 29°50' W 092°19'  

Dump ship's entire track history